x

La Have Bank (44150) Wave Buoy

4:00pm - Sun 2nd Aug 2015 All times are ADT. -3 hours from GMT.

  • Sig Wave height 4.9ft
  • Peak Period 10s
  • Wind
    11mph, 13mph gusts
  • Sea Temp 69°f
  • Air Temp 69°f
  • Sea Pressure 1014.7mb
  • La Have Bank
  • La Have Bank

More Historic Weather Station data

Upgrade to MSW Pro to gain access to the past 30 days of data for over 8000 Wavebouys and Weather Stations around the globe.

Join Pro

Comparision Forecast

View Surf forecast
   
Sun 08/02 4:00pm 5ft 10s 11 13 mph 1014.7mb 69f 69f
3:00pm 5ft 10s 13 16 mph 1014.4mb 69f 69f
2:00pm 5ft 10s 13 16 mph 1013.9mb 69f 68f
1:00pm 6ft 10s 16 18 mph 1013.6mb 69f 68f
12:00pm 5.5ft 8s 13 18 mph 1012.9mb 69f 67f
11:00am 6ft 11s 16 18 mph 1012.7mb 68f 69f
10:00am 6ft 11s 18 22 mph 1011.8mb 68f 68f
8:00am 6.5ft 11s 16 20 mph 1010.3mb 68f 68f
7:00am 6ft 11s 20 25 mph 1010mb 68f 68f
6:00am 6ft 10s 20 25 mph 1009.7mb 68f 70f
5:00am 6.5ft 11s 18 20 mph 1009.7mb 69f 71f
4:00am 6ft 10s 18 20 mph 1009.8mb 69f 71f
3:00am 5.5ft 10s 18 22 mph 1009.8mb 69f 72f
2:00am 5.5ft 10s 18
mph
1009.8mb 69f 71f
1:00am 5ft 9s 13 16 mph 1009.6mb 69f 70f
12:00am 6ft 10s 18
mph
1009.3mb 69f 71f
Sat 08/01 11:00pm 6ft 9s 16
mph
1009.1mb 69f 71f
10:00pm 5.5ft 8s 13 16 mph 1009.1mb 69f 70f
9:00pm 5ft 10s 9 13 mph 1008.9mb 69f 70f
8:00pm 5ft 8s 13 18 mph 1009.3mb 69f 71f
7:00pm 4.5ft 10s 16 18 mph 1009.8mb 70f 71f
6:00pm 4.5ft 8s 11 13 mph 1010.3mb 70f 71f
5:00pm 4.5ft 8s 13 16 mph 1011.2mb 70f 71f
4:00pm 4.5ft 8s 9 11 mph 1012.1mb 70f 71f
3:00pm 5ft 8s 7 9 mph 1012.5mb 70f 71f
2:00pm 5ft 8s 7 9 mph 1012.6mb 69f 70f
1:00pm 6ft 8s 7 9 mph 1012.5mb 69f 69f
12:00pm 6ft 9s 4 9 mph 1012mb 69f 69f
11:00am 5.5ft 9s 2 7 mph 1011.5mb 68f 69f
10:00am 5ft 9s  -  mph 1010.5mb 68f 69f
9:00am 5ft 8s 2 4 mph 1009.6mb 68f 68f
8:00am 4.5ft 8s 7 11 mph 1009.2mb 68f 69f
7:00am 5ft 8s 9 11 mph 1008.9mb 68f 68f
6:00am 5ft 8s 9 13 mph 1008.8mb 68f 69f
5:00am 4.5ft 8s 11 13 mph 1008.8mb 68f 69f
4:00am 5ft 8s 11 13 mph 1009mb 68f 68f
3:00am 5.5ft 7s 9 11 mph 1009.1mb 68f 68f
2:00am 6ft 7s 9 13 mph 1009.3mb 68f 68f
1:00am 5ft 7s 11 13 mph 1009.3mb 68f 68f
12:00am 4.5ft 6s 11 13 mph 1008.9mb 68f 68f
Fri 07/31 11:00pm 4.5ft 7s 9 11 mph 1008.7mb 68f 68f
10:00pm 4ft 7s 7 11 mph 1008.4mb 68f 68f
9:00pm 4ft 7s 13 16 mph 1008.2mb 68f 68f
8:00pm 4ft 6s 18 22 mph 1008.2mb 68f 67f
7:00pm 4ft 6s 22 27 mph 1008.2mb 68f 68f
6:00pm 3.5ft 6s 20 25 mph 1008.5mb 68f 69f
5:00pm 4.5ft 10s 22 25 mph 1008.9mb 68f 70f
4:00pm 4ft 9s 18 22 mph 1009.6mb 69f 71f
3:00pm 4ft 5s 18 20 mph 1010.3mb 69f 71f
2:00pm 4ft 10s 13 18 mph 1010.1mb 69f 71f
1:00pm 4ft 5s 18 20 mph 1010.3mb 69f 71f
12:00pm 4ft 6s 16 18 mph 1010.8mb 69f 71f
11:00am 4ft 9s 16 18 mph 1010.6mb 69f 71f
10:00am 3.5ft 8s 20 22 mph 1010.4mb 68f 71f
9:00am 4ft 8s 16 18 mph 1010.6mb 68f 70f
8:00am 4ft 9s 16 20 mph 1010.5mb 68f 70f
7:00am 4ft 9s 16 20 mph 1010.5mb 68f 70f
6:00am 4.5ft 10s 18 22 mph 1010.7mb 68f 70f
5:00am 4ft 10s 18 22 mph 1011.1mb 68f 70f
4:00am 4.5ft 8s 16 18 mph 1011.4mb 68f 69f
3:00am 4.5ft 10s 13 18 mph 1011.7mb 68f 70f
2:00am 4.5ft 9s 13
mph
1012.1mb 68f 69f
1:00am 4.5ft 9s 18
mph
1012.2mb 69f 69f
12:00am 4ft 9s 20 25 mph 1012mb 69f 69f
Thu 07/30 11:00pm 3.5ft 8s 18 22 mph 1012mb 68f 69f
10:00pm 3.5ft 10s 16 18 mph 1011.8mb 68f 69f
9:00pm 3.5ft 9s 18 22 mph 1011.7mb 68f 69f
8:00pm 4ft 9s 16 18 mph 1012.3mb 69f 69f
7:00pm 4.5ft 9s 13 16 mph 1012.9mb 70f 70f
6:00pm 4.5ft 8s 11 13 mph 1013.7mb 70f 70f
5:00pm 5ft 8s 9 11 mph 1015.1mb 71f 71f
4:00pm 5ft 9s 9 11 mph 1016.4mb 71f 71f
3:00pm 5ft 9s 7 9 mph 1017.3mb 71f 71f
2:00pm 5ft 9s 4 7 mph 1017.7mb 70f 70f
1:00pm 4.5ft 9s  -  7 mph 1017.6mb 70f 70f
12:00pm 3.5ft 9s  -  4 mph 1017mb 69f 69f
11:00am 3.5ft 10s 7
mph
1016.6mb 68f 69f
10:00am 3.5ft 9s 4 7 mph 1016.3mb 68f 69f
9:00am 3.5ft 9s  -  mph 1015.6mb 68f 69f
8:00am 3.5ft 10s  -  mph 1014.2mb 68f 68f
7:00am 4ft 9s 7 9 mph 1013.2mb 68f 68f
6:00am 4.5ft 8s 11 13 mph 1012.7mb 68f 68f
5:00am 5ft 8s 13 16 mph 1012.6mb 68f 67f
4:00am 5ft 10s 18 22 mph 1012.6mb 68f 67f
3:00am 5.5ft 10s 16 18 mph 1012.4mb 68f 67f
2:00am  -   -  18
mph
- - -
1:00am 5ft 9s 18 22 mph 1012mb 68f 68f
12:00am 6ft 9s 18 22 mph 1011.6mb 68f 68f
Wed 07/29 11:00pm 5ft 9s 18 22 mph 1011.4mb 68f 67f
10:00pm 5ft 8s 18 20 mph 1011.2mb 68f 66f
9:00pm 5ft 9s 18 22 mph 1011.1mb 68f 65f